메인 페이지
METAR-TAF:

METAR-TAF

공항 :

자유주의, 캔자스, 미국

위도: 37-03N, 경도: 100-58W, 고도: 879m

현재 날씨관측

예보는 40분 전, 05:14시(UTC)에 발표되었습니다.
북동13kt
온도 16°C
습도 88%
기압 1017 hPa
시정: 16.1km
고도 5000ft 상공 구름 조금
고도 7000ft 상공 흐림
시계 내 뇌우, 약한비

METAR: KLBL 250514Z AUTO 04013KT 10SM VCTS -RA FEW050 OVC070 16/14 A3003 RMK AO2 LTG DSNT ALQDS TSE09B14 P0003

시각: 00:54 (05:54 UTC)

예보

예보는 34분 전, 05:20시(UTC)에 발표되었습니다.
예보 대상 시간: 25일 06시부터 26일 06시까지 (UTC)
북북동15kt
시정: 10km
고도 6000ft 상공 구름 많음, 적란운.
시계 내 뇌우
25일 0800시부터 (UTC)
북서12kt
시정: 10km
고도 6000ft 상공 구름 보통
고도 25000ft 상공 구름 많음
25일 1500시부터 (UTC)
15kt
시정: 10km
고도 25000ft 상공 구름 보통
26일 0500시부터 (UTC)
8kt
시정: 10km
고도 25000ft 상공 구름 조금

TAF: KLBL 250520Z 2506/2606 02015KT P6SM VCTS BKN060CB FM250800 32012KT P6SM SCT060 BKN250 FM251500 35015KT P6SM SCT250 FM260500 18008KT P6SM FEW250

4,000개 이상의 공항 관측 자료 및 예보 (METAR 및 TAF 보고).

지도상에서 검색 가능한 기상관측소가 노란 점과 빨간 점으로 표시되어 있습니다.

기상관측소 명을 보려면 표시 위로 마우스를 이동하세요.

날씨 관측과 예보를 보려면 클릭하세요.

지도 변경 : 확대하려면 엑스 표시가 있는 녹색 버튼, 축소하려면 빼기 표시가 있는 녹색 버튼, 다음 페이지의 지도를 보려면 녹색 화살표를 클릭하세요.


METAR-TAF: